Time;durP1;ratioP1;P1;durP2;ratioP2;P2;SDS_P1;SDS_P2;PMS_P1;PMS_P2;Temp;Humidity;BMP_temperature;BMP_pressure;BME280_temperature;BME280_humidity;BME280_pressure;Samples;Min_cycle;Max_cycle;Signal;HPM_P1;HPM_P2
2023/04/11 00:00:30;;;;;;;18.10;6.60;;;;;;;10.01;100.00;101025.23;106557;1288;58533;-86
2023/04/11 00:03:00;;;;;;;18.00;6.40;;;;;;;9.98;100.00;101024.39;106532;1288;58747;-86
2023/04/11 00:05:32;;;;;;;19.40;6.30;;;;;;;10.04;100.00;101022.91;106289;1287;73738;-86
2023/04/11 00:07:58;;;;;;;11.90;5.70;;;;;;;10.06;100.00;101020.56;106492;1288;60818;-86
2023/04/11 00:10:24;;;;;;;16.30;6.20;;;;;;;10.11;100.00;101019.64;106520;1288;58764;-86
2023/04/11 00:12:49;;;;;;;13.80;5.80;;;;;;;10.14;100.00;101016.55;106219;1288;59426;-86
2023/04/11 00:15:16;;;;;;;16.80;6.00;;;;;;;10.09;100.00;101017.02;106317;1289;58329;-86
2023/04/11 00:17:44;;;;;;;14.70;5.60;;;;;;;10.09;100.00;101019.86;106516;1287;58258;-86
2023/04/11 00:20:11;;;;;;;15.10;6.10;;;;;;;10.15;100.00;101015.88;106515;1288;58283;-85
2023/04/11 00:22:38;;;;;;;13.80;5.50;;;;;;;10.18;100.00;101016.08;106423;1288;61514;-85
2023/04/11 00:25:05;;;;;;;20.80;6.70;;;;;;;10.21;100.00;101016.55;106556;1288;58395;-85
2023/04/11 00:27:30;;;;;;;15.10;5.80;;;;;;;10.23;100.00;101020.67;106524;1288;74227;-85
2023/04/11 00:29:56;;;;;;;11.80;5.10;;;;;;;10.26;100.00;101018.90;106503;1288;58398;-86
2023/04/11 00:32:25;;;;;;;14.60;5.50;;;;;;;10.32;100.00;101018.35;106902;1283;58207;-85
2023/04/11 00:34:51;;;;;;;14.10;5.60;;;;;;;10.34;100.00;101023.34;106886;1282;60279;-85
2023/04/11 00:37:20;;;;;;;13.80;5.20;;;;;;;10.35;100.00;101015.91;107076;1282;58242;-85
2023/04/11 00:39:49;;;;;;;20.70;5.80;;;;;;;10.33;100.00;101011.14;107079;1282;74138;-86
2023/04/11 00:42:15;;;;;;;11.20;5.10;;;;;;;10.35;100.00;101013.92;107082;1282;73598;-86
2023/04/11 00:44:40;;;;;;;10.70;5.60;;;;;;;10.36;100.00;101010.17;107093;1282;58238;-86
2023/04/11 00:47:06;;;;;;;15.20;5.80;;;;;;;10.42;100.00;101011.16;107045;1282;58296;-86
2023/04/11 00:49:32;;;;;;;19.60;5.40;;;;;;;10.43;100.00;101013.98;107055;1282;58231;-86
2023/04/11 00:51:59;;;;;;;13.80;5.60;;;;;;;10.43;100.00;101021.20;107081;1282;58357;-86
2023/04/11 00:54:29;;;;;;;16.30;5.50;;;;;;;10.44;100.00;101018.69;107097;1282;58424;-86
2023/04/11 00:57:03;;;;;;;13.50;5.50;;;;;;;10.45;100.00;101017.67;107059;1282;60859;-86
2023/04/11 00:59:30;;;;;;;18.50;6.10;;;;;;;10.47;100.00;101024.39;106593;1283;60993;-85
2023/04/11 01:01:57;;;;;;;14.20;5.50;;;;;;;10.47;100.00;101023.30;106727;1283;73601;-85
2023/04/11 01:04:23;;;;;;;15.10;5.90;;;;;;;10.46;100.00;101023.35;106884;1283;74335;-85
2023/04/11 01:06:55;;;;;;;13.40;5.90;;;;;;;10.48;100.00;101019.11;106750;1283;58330;-86
2023/04/11 01:09:23;;;;;;;14.70;5.30;;;;;;;10.48;100.00;101022.08;106715;1283;60828;-86
2023/04/11 01:11:49;;;;;;;16.90;6.00;;;;;;;10.46;100.00;101021.95;107065;1283;60114;-86
2023/04/11 01:14:19;;;;;;;15.90;6.70;;;;;;;10.43;100.00;101023.19;107032;1282;58199;-85
2023/04/11 01:16:49;;;;;;;15.50;5.60;;;;;;;10.42;100.00;101017.36;107060;1282;74247;-85
2023/04/11 01:19:23;;;;;;;17.20;6.10;;;;;;;10.41;100.00;101019.84;106820;1283;73524;-85
2023/04/11 01:21:50;;;;;;;15.50;5.90;;;;;;;10.37;100.00;101022.20;106708;1282;61084;-85
2023/04/11 01:24:16;;;;;;;16.40;6.20;;;;;;;10.35;100.00;101024.22;106398;1283;60889;-85
2023/04/11 01:26:42;;;;;;;19.00;6.20;;;;;;;10.35;100.00;101021.48;107108;1282;58548;-86
2023/04/11 01:29:08;;;;;;;14.00;5.80;;;;;;;10.34;100.00;101020.33;107100;1282;58243;-86
2023/04/11 01:31:33;;;;;;;16.10;6.00;;;;;;;10.32;100.00;101019.86;106865;1283;58250;-86
2023/04/11 01:34:06;;;;;;;16.60;6.70;;;;;;;10.32;100.00;101019.58;107031;1282;58258;-86
2023/04/11 01:36:35;;;;;;;21.40;6.50;;;;;;;10.33;100.00;101014.34;106628;1287;61824;-86
2023/04/11 01:39:01;;;;;;;16.90;6.00;;;;;;;10.33;100.00;101014.05;106421;1288;73181;-85
2023/04/11 01:41:29;;;;;;;17.80;6.70;;;;;;;10.32;100.00;101012.75;106694;1287;58296;-86
2023/04/11 01:43:55;;;;;;;16.90;6.10;;;;;;;10.21;100.00;101013.44;106654;1288;72356;-85
2023/04/11 01:46:24;;;;;;;13.80;5.80;;;;;;;10.13;100.00;101011.52;106819;1285;58584;-86
2023/04/11 01:48:53;;;;;;;12.90;5.90;;;;;;;10.09;100.00;101005.86;106794;1285;60060;-86
2023/04/11 01:51:19;;;;;;;10.60;5.10;;;;;;;9.93;100.00;101003.88;106828;1285;73715;-85
2023/04/11 01:53:46;;;;;;;17.50;5.90;;;;;;;9.87;100.00;101008.11;106854;1285;58367;-86
2023/04/11 01:56:12;;;;;;;15.60;6.00;;;;;;;9.82;100.00;101010.28;106823;1285;58581;-85
2023/04/11 01:58:40;;;;;;;18.80;6.10;;;;;;;9.81;100.00;101011.93;106589;1285;58594;-85
2023/04/11 02:01:06;;;;;;;16.80;5.70;;;;;;;9.84;100.00;101007.36;106858;1285;60854;-85
2023/04/11 02:03:32;;;;;;;17.30;6.00;;;;;;;9.89;100.00;101008.52;106838;1285;58735;-85
2023/04/11 02:05:57;;;;;;;18.50;6.30;;;;;;;9.88;100.00;101007.54;106807;1285;58306;-85
2023/04/11 02:08:23;;;;;;;14.80;5.80;;;;;;;9.85;100.00;101009.57;107088;1282;58317;-85
2023/04/11 02:10:49;;;;;;;15.00;5.20;;;;;;;9.82;100.00;101011.25;107180;1282;58310;-84
2023/04/11 02:13:14;;;;;;;11.40;5.70;;;;;;;9.82;100.00;101008.51;106942;1281;58720;-85
2023/04/11 02:15:39;;;;;;;17.10;6.50;;;;;;;9.84;100.00;101008.64;107227;1282;58548;-85
2023/04/11 02:18:05;;;;;;;15.20;5.70;;;;;;;9.83;100.00;101008.38;107177;1282;58745;-85
2023/04/11 02:20:31;;;;;;;17.70;6.20;;;;;;;9.83;100.00;101006.58;107190;1282;58285;-85
2023/04/11 02:22:57;;;;;;;14.30;6.10;;;;;;;9.79;100.00;101007.11;107197;1282;58651;-85
2023/04/11 02:25:23;;;;;;;16.60;5.50;;;;;;;9.72;100.00;101001.23;107195;1282;58250;-85
2023/04/11 02:27:48;;;;;;;15.50;6.20;;;;;;;9.64;100.00;100998.14;107220;1282;58399;-86
2023/04/11 02:30:14;;;;;;;20.60;6.60;;;;;;;9.61;100.00;100998.59;107177;1282;58277;-85
2023/04/11 02:32:39;;;;;;;17.80;6.20;;;;;;;9.75;100.00;101001.89;107235;1281;58231;-85
2023/04/11 02:35:06;;;;;;;12.60;5.60;;;;;;;9.79;100.00;101002.21;107206;1282;58525;-86
2023/04/11 02:37:33;;;;;;;16.90;5.50;;;;;;;9.79;100.00;101003.50;106891;1282;58665;-85
2023/04/11 02:39:59;;;;;;;16.50;5.90;;;;;;;9.71;100.00;101003.38;107160;1282;58189;-83
2023/04/11 02:42:24;;;;;;;20.90;6.10;;;;;;;9.77;100.00;100999.81;107201;1282;58478;-84
2023/04/11 02:44:53;;;;;;;12.70;5.50;;;;;;;9.80;100.00;100997.27;106791;1282;58335;-84
2023/04/11 02:47:18;;;;;;;20.00;5.90;;;;;;;9.83;100.00;100997.80;107171;1282;58535;-83
2023/04/11 02:49:44;;;;;;;14.00;6.10;;;;;;;9.90;100.00;100995.08;106984;1283;59573;-83
2023/04/11 02:52:09;;;;;;;13.80;5.10;;;;;;;9.94;100.00;100994.64;107190;1283;58253;-83
2023/04/11 02:54:35;;;;;;;16.30;5.50;;;;;;;10.01;100.00;100995.41;107036;1283;58278;-82
2023/04/11 02:57:01;;;;;;;11.50;5.30;;;;;;;10.11;100.00;100988.72;107257;1282;59684;-83
2023/04/11 02:59:26;;;;;;;22.40;6.90;;;;;;;10.16;100.00;100986.20;107079;1285;58282;-83
2023/04/11 03:01:59;;;;;;;14.20;5.20;;;;;;;10.21;100.00;100985.08;107020;1282;58318;-83
2023/04/11 03:04:26;;;;;;;11.20;5.30;;;;;;;10.24;100.00;100983.47;107167;1282;60220;-83
2023/04/11 03:06:51;;;;;;;14.90;5.40;;;;;;;10.29;100.00;100985.44;107107;1281;58253;-83
2023/04/11 03:09:17;;;;;;;14.00;5.70;;;;;;;10.32;100.00;100983.98;107078;1283;58374;-83
2023/04/11 03:11:43;;;;;;;17.60;6.00;;;;;;;10.36;100.00;100987.48;107187;1282;59022;-83
2023/04/11 03:14:09;;;;;;;16.10;5.20;;;;;;;10.40;100.00;100978.74;107193;1282;58199;-83
2023/04/11 03:16:34;;;;;;;15.00;5.60;;;;;;;10.41;100.00;100980.02;107033;1282;58425;-83
2023/04/11 03:19:00;;;;;;;16.70;5.90;;;;;;;10.46;100.00;100980.83;107261;1282;58349;-82
2023/04/11 03:21:26;;;;;;;13.90;5.80;;;;;;;10.50;100.00;100982.27;107227;1282;58387;-82
2023/04/11 03:23:52;;;;;;;19.70;5.90;;;;;;;10.52;100.00;100980.85;107037;1283;58671;-83
2023/04/11 03:26:18;;;;;;;18.50;6.40;;;;;;;10.55;100.00;100977.45;107033;1282;58722;-83
2023/04/11 03:28:44;;;;;;;14.40;6.30;;;;;;;10.56;100.00;100978.96;107166;1282;58247;-83
2023/04/11 03:31:10;;;;;;;15.60;6.10;;;;;;;10.61;100.00;100979.30;107195;1282;58213;-82
2023/04/11 03:33:36;;;;;;;15.90;6.00;;;;;;;10.64;100.00;100974.60;106865;1281;58373;-82
2023/04/11 03:36:02;;;;;;;18.80;6.50;;;;;;;10.68;100.00;100975.95;107183;1282;58544;-83
2023/04/11 03:38:28;;;;;;;15.20;6.50;;;;;;;10.73;100.00;100975.94;107157;1282;58296;-82
2023/04/11 03:40:54;;;;;;;16.20;6.00;;;;;;;10.80;100.00;100970.95;107290;1282;58267;-82
2023/04/11 03:43:19;;;;;;;16.90;6.30;;;;;;;10.83;100.00;100964.20;106958;1284;74428;-82
2023/04/11 03:45:45;;;;;;;16.20;6.10;;;;;;;10.83;100.00;100964.25;106967;1285;58724;-83
2023/04/11 03:48:10;;;;;;;16.60;6.70;;;;;;;10.86;100.00;100971.46;106949;1285;58322;-83
2023/04/11 03:50:36;;;;;;;17.90;6.30;;;;;;;10.93;100.00;100967.05;107013;1285;58335;-83
2023/04/11 03:53:02;;;;;;;19.00;5.40;;;;;;;10.95;100.00;100970.15;106976;1286;58432;-83
2023/04/11 03:55:28;;;;;;;15.70;5.10;;;;;;;11.00;100.00;100965.30;107020;1284;58745;-83
2023/04/11 03:57:53;;;;;;;12.50;4.70;;;;;;;11.08;100.00;100971.64;106764;1285;61772;-82
2023/04/11 04:00:19;;;;;;;17.60;5.40;;;;;;;11.15;100.00;100963.84;106947;1285;58251;-83
2023/04/11 04:02:45;;;;;;;15.80;5.00;;;;;;;11.20;100.00;100968.96;106975;1285;58317;-83
2023/04/11 04:05:10;;;;;;;13.60;5.00;;;;;;;11.24;100.00;100961.23;106983;1286;58724;-83
2023/04/11 04:07:36;;;;;;;15.80;5.40;;;;;;;11.25;100.00;100962.11;106927;1286;58274;-82
2023/04/11 04:10:02;;;;;;;17.40;5.40;;;;;;;11.25;100.00;100960.37;107002;1285;58395;-82
2023/04/11 04:12:27;;;;;;;17.70;5.60;;;;;;;11.18;100.00;100958.91;107000;1284;59735;-83
2023/04/11 04:14:53;;;;;;;16.90;5.20;;;;;;;11.17;100.00;100955.33;107109;1282;58619;-83
2023/04/11 04:17:18;;;;;;;13.20;5.40;;;;;;;11.10;100.00;100951.70;107204;1282;58266;-83
2023/04/11 04:19:44;;;;;;;14.80;5.00;;;;;;;11.19;100.00;100954.54;107182;1282;58270;-82
2023/04/11 04:22:12;;;;;;;16.00;5.00;;;;;;;11.20;100.00;100951.05;107302;1282;58213;-82
2023/04/11 04:24:38;;;;;;;11.50;5.10;;;;;;;11.20;100.00;100953.95;107152;1283;74406;-83
2023/04/11 04:27:10;;;;;;;13.40;4.80;;;;;;;11.19;100.00;100953.78;107150;1281;58245;-82
2023/04/11 04:29:45;;;;;;;18.70;5.30;;;;;;;11.21;100.00;100955.85;107129;1283;62666;-82
2023/04/11 04:32:22;;;;;;;14.70;5.00;;;;;;;11.16;100.00;100956.08;107171;1283;61186;-82
2023/04/11 04:34:53;;;;;;;17.90;5.30;;;;;;;11.21;100.00;100959.64;107198;1282;74551;-82
2023/04/11 04:37:21;;;;;;;19.30;5.50;;;;;;;11.26;100.00;100961.36;107162;1284;73489;-83
2023/04/11 04:40:06;;;;;;;21.40;5.10;;;;;;;11.34;99.73;100964.45;106979;1282;72465;-82
2023/04/11 04:42:33;;;;;;;12.40;5.30;;;;;;;11.45;98.85;100962.13;107163;1282;62005;-83
2023/04/11 04:44:59;;;;;;;13.90;5.50;;;;;;;11.57;96.45;100957.32;107044;1282;61194;-82
2023/04/11 04:47:30;;;;;;;12.80;4.60;;;;;;;11.62;94.18;100960.65;107200;1285;58255;-83
2023/04/11 04:49:56;;;;;;;15.20;5.20;;;;;;;11.58;94.29;100963.21;107327;1281;74265;-83
2023/04/11 04:52:26;;;;;;;19.20;4.80;;;;;;;11.65;92.63;100956.94;107102;1283;58312;-83
2023/04/11 04:54:59;;;;;;;12.50;5.20;;;;;;;11.69;91.92;100952.65;107019;1282;62556;-82
2023/04/11 04:57:26;;;;;;;14.30;5.00;;;;;;;11.71;90.71;100952.04;107270;1283;61213;-83
2023/04/11 04:59:53;;;;;;;15.50;5.20;;;;;;;11.67;90.36;100953.19;106838;1281;74498;-82
2023/04/11 05:02:18;;;;;;;15.40;5.60;;;;;;;11.70;89.59;100950.40;107310;1282;58533;-82
2023/04/11 05:04:44;;;;;;;14.10;5.00;;;;;;;11.63;89.94;100948.41;106702;1281;58352;-82
2023/04/11 05:07:12;;;;;;;14.40;5.10;;;;;;;11.67;90.27;100946.00;107070;1281;58227;-83
2023/04/11 05:09:38;;;;;;;10.80;4.60;;;;;;;11.70;90.21;100944.10;107321;1281;58299;-84
2023/04/11 05:12:03;;;;;;;20.50;5.50;;;;;;;11.75;89.47;100943.90;107336;1283;58314;-85
2023/04/11 05:14:29;;;;;;;16.40;5.60;;;;;;;11.79;88.77;100940.38;107287;1282;58333;-85
2023/04/11 05:16:54;;;;;;;18.40;6.40;;;;;;;11.75;88.29;100939.52;107292;1282;58172;-83
2023/04/11 05:19:20;;;;;;;16.90;6.20;;;;;;;11.87;86.59;100933.92;107345;1281;58215;-82
2023/04/11 05:21:45;;;;;;;13.80;5.30;;;;;;;11.87;85.72;100930.34;107328;1281;73677;-83
2023/04/11 05:24:11;;;;;;;15.60;5.50;;;;;;;11.91;84.94;100929.21;107286;1285;58257;-82
2023/04/11 05:26:36;;;;;;;15.10;5.10;;;;;;;11.88;85.54;100930.53;107265;1281;58254;-82
2023/04/11 05:29:02;;;;;;;9.90;4.50;;;;;;;11.92;85.22;100926.45;107281;1282;58450;-83
2023/04/11 05:31:27;;;;;;;12.00;4.60;;;;;;;11.98;84.74;100926.80;107358;1282;58295;-83
2023/04/11 05:33:53;;;;;;;12.90;4.80;;;;;;;12.03;82.80;100920.95;107075;1283;58516;-83
2023/04/11 05:36:19;;;;;;;15.20;4.60;;;;;;;12.07;81.50;100920.33;106752;1283;58388;-83
2023/04/11 05:38:45;;;;;;;14.00;4.80;;;;;;;12.07;81.40;100922.27;107290;1283;58234;-82
2023/04/11 05:41:11;;;;;;;17.30;4.40;;;;;;;12.09;80.62;100920.23;107302;1282;58218;-82
2023/04/11 05:43:37;;;;;;;12.00;4.50;;;;;;;12.09;80.18;100916.88;107273;1281;58688;-83
2023/04/11 05:46:03;;;;;;;13.20;4.40;;;;;;;12.11;79.91;100911.42;107305;1282;58558;-83
2023/04/11 05:48:29;;;;;;;15.90;5.20;;;;;;;12.15;78.84;100907.35;107278;1282;58398;-83
2023/04/11 05:50:56;;;;;;;18.70;5.40;;;;;;;12.20;77.61;100906.02;106903;1281;58382;-83
2023/04/11 05:53:22;;;;;;;18.00;4.40;;;;;;;12.22;77.40;100902.46;106829;1282;72659;-83
2023/04/11 05:55:47;;;;;;;13.90;4.70;;;;;;;12.29;76.86;100901.24;107291;1283;58253;-83
2023/04/11 05:58:13;;;;;;;12.80;4.80;;;;;;;12.36;76.28;100899.50;106717;1282;58251;-83
2023/04/11 06:00:39;;;;;;;13.10;5.00;;;;;;;12.52;76.43;100890.48;107289;1283;59160;-83
2023/04/11 06:03:06;;;;;;;12.80;4.30;;;;;;;12.68;74.97;100886.52;107320;1281;58830;-83
2023/04/11 06:05:33;;;;;;;14.30;4.60;;;;;;;12.82;73.44;100889.76;107303;1282;58233;-83
2023/04/11 06:08:00;;;;;;;14.40;4.10;;;;;;;12.92;72.60;100893.23;107350;1283;58262;-83
2023/04/11 06:10:27;;;;;;;16.10;4.80;;;;;;;12.99;71.43;100887.19;107269;1282;58231;-83
2023/04/11 06:12:53;;;;;;;12.20;4.10;;;;;;;12.98;70.63;100888.70;107329;1282;58209;-83
2023/04/11 06:15:20;;;;;;;11.30;4.20;;;;;;;13.00;70.24;100885.50;107317;1282;58238;-83
2023/04/11 06:17:46;;;;;;;10.70;4.30;;;;;;;12.90;71.10;100883.27;107095;1283;58268;-83
2023/04/11 06:20:15;;;;;;;12.00;4.10;;;;;;;13.00;70.62;100885.61;106824;1283;58330;-83
2023/04/11 06:22:40;;;;;;;9.00;3.80;;;;;;;13.11;70.30;100881.08;107272;1281;72578;-83
2023/04/11 06:25:07;;;;;;;10.60;4.20;;;;;;;13.18;69.13;100876.32;107317;1282;58299;-83
2023/04/11 06:27:33;;;;;;;12.10;4.30;;;;;;;13.30;68.10;100877.27;107285;1282;58677;-82
2023/04/11 06:29:59;;;;;;;12.40;4.20;;;;;;;13.48;68.28;100874.89;107078;1283;58589;-83
2023/04/11 06:32:25;;;;;;;13.20;3.80;;;;;;;13.77;67.54;100868.77;106858;1283;58512;-83
2023/04/11 06:34:51;;;;;;;13.00;4.10;;;;;;;14.16;65.99;100863.95;106879;1281;58744;-82
2023/04/11 06:37:17;;;;;;;15.50;3.80;;;;;;;14.47;64.45;100853.13;107297;1282;58509;-83
2023/04/11 06:39:42;;;;;;;21.20;3.80;;;;;;;14.80;64.05;100855.73;107381;1282;58206;-83
2023/04/11 06:42:08;;;;;;;9.70;4.00;;;;;;;15.28;60.98;100853.58;107344;1281;58310;-83
2023/04/11 06:44:34;;;;;;;8.80;3.10;;;;;;;15.83;59.26;100842.83;107062;1282;58334;-84
2023/04/11 06:46:59;;;;;;;13.80;4.20;;;;;;;16.44;56.35;100840.52;107319;1283;58618;-82
2023/04/11 06:49:26;;;;;;;10.60;3.90;;;;;;;16.93;55.15;100841.69;107261;1282;58271;-83
2023/04/11 06:51:53;;;;;;;13.00;4.10;;;;;;;17.09;54.02;100842.85;107318;1282;58207;-83
2023/04/11 06:54:19;;;;;;;15.20;4.00;;;;;;;17.47;53.68;100844.77;106835;1283;59249;-84
2023/04/11 06:56:46;;;;;;;14.70;4.00;;;;;;;18.09;51.90;100840.95;107273;1281;58248;-87
2023/04/11 06:59:12;;;;;;;11.40;4.40;;;;;;;18.82;50.64;100838.66;107056;1283;58190;-88
2023/04/11 07:01:38;;;;;;;8.90;3.50;;;;;;;19.78;46.39;100835.09;107323;1282;58289;-89
2023/04/11 07:04:05;;;;;;;9.90;3.40;;;;;;;19.76;45.66;100832.52;106643;1283;412118;-88
2023/04/11 07:06:34;;;;;;;10.70;3.50;;;;;;;19.93;44.98;100829.97;106687;1286;58335;-88
2023/04/11 07:09:00;;;;;;;12.90;4.40;;;;;;;19.85;44.94;100831.89;106546;1291;73521;-89
2023/04/11 07:11:26;;;;;;;10.40;3.40;;;;;;;19.81;43.67;100831.63;106722;1286;58192;-89
2023/04/11 07:13:53;;;;;;;10.60;3.40;;;;;;;19.74;42.67;100823.64;106462;1286;58392;-89
2023/04/11 07:16:19;;;;;;;17.50;3.30;;;;;;;19.58;43.12;100827.99;106719;1286;58295;-88
2023/04/11 07:18:45;;;;;;;9.60;3.40;;;;;;;19.57;43.14;100819.67;106687;1286;58382;-88
2023/04/11 07:21:12;;;;;;;12.50;3.50;;;;;;;19.68;42.32;100821.70;106464;1286;58303;-88
2023/04/11 07:23:38;;;;;;;9.30;3.80;;;;;;;19.73;42.91;100815.79;106526;1286;58377;-87
2023/04/11 07:26:04;;;;;;;10.10;3.90;;;;;;;20.15;41.49;100812.18;106365;1289;58329;-87
2023/04/11 07:28:32;;;;;;;13.20;4.20;;;;;;;20.13;41.95;100810.80;106261;1289;58394;-88
2023/04/11 07:30:58;;;;;;;16.30;4.70;;;;;;;20.40;41.86;100806.34;106114;1289;58243;-89
2023/04/11 07:33:24;;;;;;;13.20;4.30;;;;;;;20.36;41.38;100805.88;106317;1289;59329;-88
2023/04/11 07:35:50;;;;;;;8.90;3.60;;;;;;;20.25;41.84;100804.73;106352;1289;58198;-88
2023/04/11 07:38:26;;;;;;;14.30;4.30;;;;;;;20.14;41.36;100804.43;106618;1286;58527;-88
2023/04/11 07:40:52;;;;;;;10.50;3.90;;;;;;;20.09;41.00;100801.58;106583;1291;73614;-88
2023/04/11 07:43:18;;;;;;;7.70;3.10;;;;;;;19.76;42.11;100803.17;106720;1286;58338;-89
2023/04/11 07:45:43;;;;;;;14.30;3.70;;;;;;;20.04;41.83;100810.16;106433;1286;58367;-88
2023/04/11 07:48:09;;;;;;;11.70;3.90;;;;;;;20.14;41.38;100799.92;106334;1290;58316;-89
2023/04/11 07:50:34;;;;;;;19.10;5.00;;;;;;;19.99;42.72;100798.13;106403;1293;58205;-89
2023/04/11 07:53:01;;;;;;;11.00;3.30;;;;;;;20.49;41.78;100790.93;106415;1289;58680;-88
2023/04/11 07:55:26;;;;;;;16.30;3.80;;;;;;;20.84;41.66;100785.60;106233;1289;72356;-88
2023/04/11 07:57:52;;;;;;;7.90;3.10;;;;;;;21.16;40.70;100779.84;106476;1286;58262;-85
2023/04/11 08:00:21;;;;;;;13.80;3.40;;;;;;;20.95;40.78;100780.44;106731;1286;59188;-85
2023/04/11 08:02:47;;;;;;;14.80;3.50;;;;;;;21.02;41.03;100772.42;106721;1286;74666;-84
2023/04/11 08:05:13;;;;;;;16.80;3.40;;;;;;;21.06;40.76;100771.67;106505;1286;58335;-85
2023/04/11 08:07:39;;;;;;;11.40;3.60;;;;;;;21.42;40.06;100767.72;106668;1286;58241;-85
2023/04/11 08:10:06;;;;;;;11.80;3.40;;;;;;;21.02;40.00;100758.75;106736;1286;58293;-85
2023/04/11 08:12:31;;;;;;;8.70;3.20;;;;;;;20.50;41.75;100762.55;106436;1288;58371;-85
2023/04/11 08:14:57;;;;;;;8.10;3.30;;;;;;;20.42;41.80;100752.34;106484;1288;58744;-85
2023/04/11 08:17:27;;;;;;;13.70;3.90;;;;;;;20.15;42.11;100741.11;106466;1290;58327;-85
2023/04/11 08:19:56;;;;;;;9.30;3.10;;;;;;;20.12;41.40;100743.71;106433;1288;72426;-85
2023/04/11 08:22:23;;;;;;;12.70;3.40;;;;;;;20.15;41.78;100743.20;106427;1289;60508;-85
2023/04/11 08:24:48;;;;;;;13.10;2.90;;;;;;;20.34;41.46;100736.72;106529;1289;58593;-85
2023/04/11 08:27:14;;;;;;;10.80;3.30;;;;;;;20.40;41.23;100742.96;107014;1286;58389;-84
2023/04/11 08:29:39;;;;;;;9.50;3.70;;;;;;;20.61;40.78;100738.39;106956;1285;58269;-85
2023/04/11 08:32:05;;;;;;;8.40;3.70;;;;;;;20.63;40.93;100728.23;106961;1286;58387;-85
2023/04/11 08:34:32;;;;;;;13.70;3.60;;;;;;;20.70;40.56;100727.02;106849;1284;58305;-85
2023/04/11 08:36:57;;;;;;;13.60;3.50;;;;;;;20.47;41.20;100724.08;106961;1286;73686;-85
2023/04/11 08:39:23;;;;;;;11.20;3.40;;;;;;;20.37;41.18;100724.28;106495;1286;58649;-84
2023/04/11 08:41:50;;;;;;;10.30;3.10;;;;;;;20.27;41.44;100723.73;107017;1286;58303;-84
2023/04/11 08:44:15;;;;;;;10.00;4.00;;;;;;;20.31;41.17;100716.81;106972;1285;58196;-84
2023/04/11 08:46:42;;;;;;;17.30;4.00;;;;;;;20.62;41.09;100714.84;106977;1286;58336;-84
2023/04/11 08:49:09;;;;;;;8.70;3.20;;;;;;;20.94;41.03;100712.20;106985;1286;58283;-84
2023/04/11 08:51:35;;;;;;;8.10;3.50;;;;;;;21.45;40.40;100701.70;107243;1282;58278;-83
2023/04/11 08:54:04;;;;;;;7.40;3.20;;;;;;;22.00;39.03;100696.64;107185;1282;58259;-84
2023/04/11 08:56:34;;;;;;;12.10;3.20;;;;;;;22.10;38.36;100689.59;107186;1282;61759;-84
2023/04/11 08:59:00;;;;;;;9.00;3.50;;;;;;;21.93;39.02;100694.77;107078;1282;60121;-84
2023/04/11 09:01:30;;;;;;;12.70;3.70;;;;;;;21.88;38.68;100698.64;107216;1282;58206;-84
2023/04/11 09:03:58;;;;;;;13.10;4.00;;;;;;;21.88;38.01;100687.73;107211;1282;74413;-84
2023/04/11 09:06:25;;;;;;;10.70;4.20;;;;;;;21.23;38.90;100688.85;107197;1282;73694;-84
2023/04/11 09:08:51;;;;;;;12.70;3.10;;;;;;;20.74;40.21;100680.86;107183;1282;59819;-84
2023/04/11 09:11:17;;;;;;;9.30;3.00;;;;;;;20.73;39.66;100678.83;106943;1283;58328;-84
2023/04/11 09:13:42;;;;;;;12.60;3.50;;;;;;;20.28;40.35;100681.00;107206;1281;58280;-84
2023/04/11 09:16:11;;;;;;;7.50;3.40;;;;;;;20.15;40.45;100682.94;106770;1286;58212;-84
2023/04/11 09:18:41;;;;;;;12.80;3.60;;;;;;;19.92;41.27;100677.98;107209;1282;58274;-83
2023/04/11 09:21:11;;;;;;;11.30;3.20;;;;;;;19.95;41.57;100670.53;107193;1282;60886;-84
2023/04/11 09:23:37;;;;;;;11.40;3.60;;;;;;;20.12;41.42;100666.39;107200;1282;59968;-85
2023/04/11 09:26:08;;;;;;;11.60;3.10;;;;;;;20.43;41.76;100656.86;106751;1282;58272;-84
2023/04/11 09:28:41;;;;;;;11.00;3.20;;;;;;;20.75;41.06;100655.20;107186;1281;73078;-84
2023/04/11 09:31:08;;;;;;;11.40;3.70;;;;;;;20.93;40.13;100648.98;107223;1282;73220;-84
2023/04/11 09:33:34;;;;;;;7.40;2.80;;;;;;;21.17;39.50;100650.67;107175;1282;61126;-84
2023/04/11 09:36:00;;;;;;;13.20;3.90;;;;;;;20.92;39.49;100646.22;107237;1282;59211;-84
2023/04/11 09:38:33;;;;;;;18.50;3.70;;;;;;;20.70;40.53;100634.83;107274;1282;58597;-84
2023/04/11 09:41:01;;;;;;;11.90;3.50;;;;;;;20.55;41.07;100629.16;107033;1283;74531;-83
2023/04/11 09:43:27;;;;;;;8.90;3.30;;;;;;;20.38;40.66;100628.34;106865;1283;73369;-85
2023/04/11 09:46:09;;;;;;;9.60;3.20;;;;;;;20.08;41.48;100633.50;107260;1282;58187;-84
2023/04/11 09:48:37;;;;;;;7.40;3.10;;;;;;;19.82;41.63;100626.96;107204;1281;61226;-83
2023/04/11 09:51:05;;;;;;;10.80;3.10;;;;;;;19.71;42.04;100627.95;106798;1283;74289;-84
2023/04/11 09:53:34;;;;;;;6.50;3.10;;;;;;;19.67;41.64;100623.31;107327;1282;73421;-84
2023/04/11 09:56:00;;;;;;;6.20;2.90;;;;;;;19.43;42.24;100615.21;107282;1282;73676;-84
2023/04/11 09:58:32;;;;;;;13.60;3.00;;;;;;;19.37;42.47;100610.95;107330;1282;58654;-84
2023/04/11 10:00:59;;;;;;;11.10;3.00;;;;;;;19.30;42.64;100612.52;107331;1282;59143;-84
2023/04/11 10:03:25;;;;;;;11.80;3.30;;;;;;;19.12;42.91;100610.09;107312;1282;73625;-84
2023/04/11 10:05:54;;;;;;;9.20;2.80;;;;;;;19.03;43.14;100601.11;107309;1281;58257;-84
2023/04/11 10:08:29;;;;;;;6.80;3.10;;;;;;;18.93;43.13;100596.36;107255;1281;73333;-85
2023/04/11 10:10:56;;;;;;;6.70;2.80;;;;;;;18.94;43.65;100585.64;107292;1282;59954;-84
2023/04/11 10:13:34;;;;;;;10.50;3.20;;;;;;;19.04;43.42;100580.36;107329;1282;59933;-84
2023/04/11 10:16:10;;;;;;;13.10;3.00;;;;;;;19.10;43.55;100575.66;106862;1281;73764;-84
2023/04/11 10:18:36;;;;;;;6.90;3.20;;;;;;;19.33;43.29;100577.80;107295;1282;73752;-85
2023/04/11 10:21:02;;;;;;;7.90;2.90;;;;;;;19.50;42.60;100579.59;107306;1281;58193;-84
2023/04/11 10:23:28;;;;;;;8.90;2.90;;;;;;;19.58;43.29;100575.45;107295;1281;59087;-84
2023/04/11 10:25:59;;;;;;;9.70;2.90;;;;;;;19.77;42.86;100574.13;107323;1282;58267;-84
2023/04/11 10:28:38;;;;;;;11.20;2.90;;;;;;;20.04;41.87;100569.09;107279;1282;74551;-84
2023/04/11 10:31:06;;;;;;;9.90;3.40;;;;;;;20.05;41.91;100560.05;106814;1282;73786;-83
2023/04/11 10:33:33;;;;;;;10.50;3.10;;;;;;;20.17;41.99;100557.59;107310;1281;71398;-83
2023/04/11 10:36:08;;;;;;;6.90;2.60;;;;;;;20.13;41.61;100561.02;107263;1282;61201;-84
2023/04/11 10:38:40;;;;;;;9.90;2.90;;;;;;;19.99;41.53;100555.73;107270;1282;60096;-84
2023/04/11 10:41:32;;;;;;;13.80;3.30;;;;;;;19.97;41.68;100550.88;107298;1282;74772;-84
2023/04/11 10:44:17;;;;;;;12.90;2.90;;;;;;;19.81;42.18;100543.54;107327;1282;72732;-84
2023/04/11 10:46:53;;;;;;;10.40;2.80;;;;;;;19.68;41.83;100535.23;107022;1283;73674;-84
2023/04/11 10:49:34;;;;;;;8.60;2.90;;;;;;;19.62;42.18;100539.02;107284;1281;59256;-86
2023/04/11 10:52:20;;;;;;;9.10;3.00;;;;;;;19.55;42.70;100540.77;107314;1283;61343;-84
2023/04/11 10:54:47;;;;;;;8.60;2.90;;;;;;;19.47;42.20;100540.73;106767;1282;73586;-84
2023/04/11 10:57:13;;;;;;;13.10;3.80;;;;;;;19.38;42.81;100537.77;107267;1281;58068;-83
2023/04/11 10:59:38;;;;;;;7.90;2.70;;;;;;;19.53;42.84;100534.38;107248;1282;58255;-84
2023/04/11 11:02:03;;;;;;;10.50;3.40;;;;;;;19.67;42.71;100534.71;107320;1281;58587;-83
2023/04/11 11:04:36;;;;;;;6.90;2.60;;;;;;;19.78;42.66;100527.45;107324;1281;58256;-83
2023/04/11 11:07:04;;;;;;;9.10;2.90;;;;;;;19.86;42.82;100529.79;107266;1282;74360;-83